Portada
METAR-TAF:

METAR-TAF

Aeroports :

San Andrés, Colòmbia

latitud: 12-35N, longitud: 081-43W, altitud: 1 m

Observació

L'informe es va fer fa 37 minuts, a les 12:00 UTC
Vent 15 kt del Nord-Est
Temperatura 27°C
Humitat 79%
Pressió 1013 hPa
Visibilitat 10 km o més
Núvols disperses a una alçada de 1600 ft

METAR: SKSP 191200Z 05015KT 9999 SCT016 27/23 Q1013 RMK A2991

Hora: 07:37 (12:37 UTC)

Pronòstic

L'informe es va fer fa 2 hores i 7 minuts, a les 10:30 UTC
Pronòstic vàlid del 19 a les 12 UTC al 20 a les 12 UTC
Vent 14 kt del Nord-Est
Visibilitat 10 km o més
Escasses núvols a una alçada de 1700 ft
Evolucionant progressivament
l' 20 a les 02 UTC al 20 a les 04 UTC
Vent 7 kt del Est/Nord-Est

TAF: SKSP 191030Z 1912/2012 05014KT 9999 FEW017 BECMG 2002/2004 06007KT TX30/1918Z TN25/2010Z

Observacions i pronòstics meteorològics de més de 4000 aeroports (METAR i TAF).

Les estacions disponibles són els punts grocs i vermells al mapa.

Posi el ratolí al punt desitjat per veure el nom de l'estació.

Feu clic per veure les observacions i els pronòstics meteorològics.

Per canviar el mapa: feu clic els botons verds amb una creu de color negre per apropar; al botó verd amb un guió per allunyar la imatge; o en les fletxes verdes per a mapes adjacents.


METAR-TAF: